ZBAAZGSZ

Guest
Details From ZBAA - Capital Intl
To ZGSZ - Baoan Intl
Flight Number -
Tags Generated
Created
Modified
Stats Distance 1,059 nm / 1,961 km
Max Altitude 0 ft / 0 m
Waypoints 6
Social Downloads 0
Likes 0
Share VATSIM

Download

Looking for another format? Having issues loading an existing format? Contact us
Advertisement - Login to hide

Notes

Generated

Route

ZBAA PM SY WYN LQ ZGSZ

ID Type Via Altitude Latitude Longitude Leg Dist Tot Dist Heading (true) Name
O ZBAA APT - 0 ft / 0 m 40.10211˚ 116.56969˚ - 0 nm - -
PM NDB - 0 ft / 0 m 38.08333˚ 116.55000˚ 121 nm 121 nm 180° / 180° POTOU NDB
SY NDB - 0 ft / 0 m 30.44167˚ 115.26500˚ 463 nm 584 nm 188° / 188° XISHUI NDB
WYN VOR - 0 ft / 0 m 24.34667˚ 114.11167˚ 371 nm 955 nm 190° / 189° WONGYUAN VOR-DME
LQ NDB - 0 ft / 0 m 23.09000˚ 113.85333˚ 76 nm 1032 nm 191° / 191° SHILONG NDB
O ZGSZ APT - 0 ft / 0 m 22.65296˚ 113.80315˚ 26 nm 1058 nm 186° / 186° -

Altitude Profile

Advertisement - Login to hide

Weather


0- 5 10 15 20 25 30 35+ Temperature / ° C

Clouds and Precipitation
Forecast for 2018-05-23 12:00 UTC. Updated 6 hours ago

Ground ~20,000 ft ~40,000 ft Winds

ZBAA

Details ICAO ZBAA (PEK)
Name CAPITAL INTL
Region China
Timezone Asia/Shanghai (UTC+8.0)
Stats Elevation 116 ft / 35 m (AMSL)
Location 40.080118° 116.584563°
Runways 2
Magnetic Variation 6.980° W

METAR

ZBAA 231700Z 05001MPS CAVOK 16/12 Q1001 NOSIG

Decode

TAF

Not found

Departure Runways

ID Width Length Bearing (true) Bearing (mag) Surface Threshold Offset Overrun Length
18L 197 ft / 60 m 12,436 ft / 3,790 m 173.12° 180.10° Asphalt 0 ft / 0 m 197 ft / 60 m
18R 164 ft / 50 m 10,506 ft / 3,202 m 174.11° 181.09° Asphalt 0 ft / 0 m 197 ft / 60 m
36L 164 ft / 50 m 10,506 ft / 3,202 m 354.11° 1.09° Asphalt 0 ft / 0 m 197 ft / 60 m
36R 197 ft / 60 m 12,436 ft / 3,790 m 353.12° 0.10° Asphalt 0 ft / 0 m 197 ft / 60 m

ZGSZ

Details ICAO ZGSZ (SZX)
Name BAOAN INTL
Region China
Timezone Asia/Shanghai (UTC+8.0)
Stats Elevation 13 ft / 4 m (AMSL)
Location 22.639259° 113.810663°
Runways 1
Magnetic Variation 2.889° W

METAR

ZGSZ 231700Z 17004MPS CAVOK 29/26 Q1008 NOSIG

Decode

TAF

Not found

Destination Runways

ID Width Length Bearing (true) Bearing (mag) Surface Threshold Offset Overrun Length
15 148 ft / 45 m 11,209 ft / 3,416 m 153.15° 156.04° Concrete 0 ft / 0 m 197 ft / 60 m
33 148 ft / 45 m 11,209 ft / 3,416 m 333.15° 336.04° Concrete 0 ft / 0 m 197 ft / 60 m

Approach Navaids

Runway Type Ident Frequency Range Bearing (true) Bearing (mag) Slope Elevation
15 Localiser IQJ 111.30 MHz 18 nm / 33 km 153.14° 156.03° - 13 ft / 4 m (AMSL)
15 Glidescope IQJ 111.30 MHz 10 nm / 19 km 153.15° 156.04° 3.00° 13 ft / 4 m (AMSL)
15 DME IQJ 111.30 MHz 18 nm / 33 km - - - 33 ft / 10 m (AMSL)
33 Localiser IMH 110.70 MHz 18 nm / 33 km 333.13° 336.02° - 13 ft / 4 m (AMSL)
33 Glidescope IMH 110.70 MHz 10 nm / 19 km 333.15° 336.04° 3.00° 13 ft / 4 m (AMSL)
33 DME IMH 110.70 MHz 18 nm / 33 km - - - 26 ft / 8 m (AMSL)

Popular Alternatives